Milan, KS (67105)

4:28 PM CDT on August 22, 2014 (GMT -0500)
KanOkla | Change Station
CLOSE
Current Station
Personal Weather Station
Location: Caldwell, KS
Elevation: 1168 ft
Nearby Weather Stations
Active Advisory: Heat Advisory

Elev 1168 ft 37.03 °N, 97.61 °W | Updated 3 minutes ago

Scattered Clouds
Scattered Clouds
104.7 °F
Feels Like 111 °F
N
9.0
Wind Variable Wind from SSW
Gusts 9.0 mph

Today
High -- | Low -- °F
--% Chance of Precip.
Yesterday
High -- | Low -- °F
Precip. -- in
6:52 AM 8:13 PM
Waning Crescent, 6% visible
Pressure 29.86 in
Visibility 10.0 miles
Clouds Scattered Clouds 9500 ft
Scattered Clouds 12000 ft
Scattered Clouds 18000 ft
Heat Index 111 °F
Dew Point 67 °F
Humidity 30%
Rainfall 0.00 in
Snow Depth Not available.
UV 6 out of 12
Pollen 11.20 out of 12
Air Quality Not available.
Flu Activity Not available.
METAR KICT 222053Z 18016KT 10SM SCT095 SCT120 SCT180 38/18 A2986

More Conditions Fewer Conditions

Pressure 29.86 in
Visibility 10.0 miles
Clouds Scattered Clouds 9500 ft
Scattered Clouds 12000 ft
Scattered Clouds 18000 ft
Heat Index 111 °F
Dew Point 67 °F
Humidity 30%
Rainfall 0.00 in
Snow Depth Not available.
UV 6 out of 12
Pollen 11.20 out of 12
Air Quality Not available.
Flu Activity Not available.
METAR KICT 222053Z 18016KT 10SM SCT095 SCT120 SCT180 38/18 A2986

More Conditions Fewer Conditions

10-Day Weather Forecast

Almanac

Astronomy

Aug. 22, 2014 Rise Set
Actual Time 6:52 AM CDT 8:13 PM CDT
Civil Twilight 6:25 AM CDT 8:40 PM CDT
Nautical Twilight 5:53 AM CDT 9:13 PM CDT
Astronomical Twilight 5:18 AM CDT 9:47 PM CDT
Moon 4:18 AM CDT 6:21 PM CDT
Length of Visible Light 14h 14m
Length of Day
13h 20m
Tomorrow will be 2m 12s shorter.
Waning Crescent, 6% of the Moon is Illuminated
Today
Waning Crescent
Aug 25
New
Sep 2
First Quarter
Sep 8
Full
Sep 15
Last Quarter

Today's Extremes

State Highs State Lows

Community

WunderPhotos

Upload Photos

1,746,254 photos uploaded!

Nearby

Snow Depth

Station Depth Elevation
No new snow has been reported.

Earthquake Activity

City Distance Mag. Time & Date
Boley, Oklahoma 146 miles 3.4 9:50 PM CDT
2014-08-17
Cherokee, Oklahoma 43 miles 3.8 8:25 PM CDT
2014-08-17
Medford, Oklahoma 29 miles 2.9 6:30 PM CDT
2014-08-17
Cherokee, Oklahoma 51 miles 2.6 11:50 AM CDT
2014-08-17
Minimum magnitude displayed is 2.5.

Coastal Water Temperatures

Place Temperature
No Stations Reporting

Nearby Weather Stations